createdAt,value
2019-02-04T00:04:52.786Z,7.75
2019-02-04T00:09:58.797Z,7.18
2019-02-04T00:15:04.788Z,4.93
2019-02-04T00:20:10.868Z,5.32
2019-02-04T00:25:16.890Z,5.49
2019-02-04T00:30:22.879Z,8.57
2019-02-04T00:35:28.888Z,6.01
2019-02-04T00:40:34.859Z,5.39
2019-02-04T00:45:40.956Z,5.66
2019-02-04T00:50:47.051Z,5.72
2019-02-04T00:55:53.057Z,5.71
2019-02-04T01:00:59.058Z,6.24
2019-02-04T01:06:05.093Z,5.69
2019-02-04T01:11:11.358Z,8.85
2019-02-04T01:16:17.449Z,5.92
2019-02-04T01:21:23.475Z,8.94
2019-02-04T01:26:29.537Z,6.21
2019-02-04T01:31:35.528Z,5.84
2019-02-04T01:36:41.531Z,6.00
2019-02-04T01:41:47.536Z,9.00
2019-02-04T01:46:53.525Z,6.11
2019-02-04T01:51:59.495Z,6.46
2019-02-04T01:57:05.736Z,6.64
2019-02-04T02:02:11.729Z,10.21
2019-02-04T02:07:17.725Z,10.18
2019-02-04T02:12:23.259Z,6.88
2019-02-04T02:17:29.260Z,11.26
2019-02-04T02:22:35.303Z,6.64
2019-02-04T02:27:41.294Z,9.30
2019-02-04T02:32:47.296Z,9.42
2019-02-04T02:37:53.314Z,6.75
2019-02-04T02:42:59.342Z,6.65
2019-02-04T02:48:05.387Z,6.43
2019-02-04T02:53:11.403Z,9.56
2019-02-04T02:58:17.397Z,6.82
2019-02-04T03:03:23.405Z,6.95
2019-02-04T03:08:29.407Z,10.29
2019-02-04T03:13:35.435Z,6.92
2019-02-04T03:18:41.644Z,7.38
2019-02-04T03:23:47.531Z,7.58
2019-02-04T03:28:53.516Z,7.71
2019-02-04T03:33:59.518Z,8.01
2019-02-04T03:39:05.494Z,7.88
2019-02-04T03:44:11.513Z,7.48
2019-02-04T03:49:17.528Z,7.79
2019-02-04T03:54:23.515Z,8.13
2019-02-04T03:59:29.500Z,7.71
2019-02-04T04:04:35.476Z,8.62
2019-02-04T04:09:41.450Z,10.15
2019-02-04T04:14:47.445Z,9.21
2019-02-04T04:19:53.538Z,12.40
2019-02-04T04:24:59.485Z,7.98
2019-02-04T04:30:05.549Z,11.41
2019-02-04T04:35:11.564Z,8.79
2019-02-04T04:40:17.612Z,12.15
2019-02-04T04:45:23.591Z,12.74
2019-02-04T04:50:29.676Z,9.76
2019-02-04T04:55:35.616Z,9.70
2019-02-04T05:00:41.604Z,11.13
2019-02-04T05:05:47.606Z,18.02
2019-02-04T05:10:53.655Z,13.05
2019-02-04T05:15:59.644Z,13.24
2019-02-04T05:21:05.634Z,12.23
2019-02-04T05:26:11.670Z,11.97
2019-02-04T05:31:17.644Z,18.94
2019-02-04T05:36:23.806Z,13.65
2019-02-04T05:41:29.825Z,13.12
2019-02-04T05:46:35.902Z,13.17
2019-02-04T05:51:42.073Z,12.92
2019-02-04T05:56:48.068Z,13.24
2019-02-04T06:01:54.070Z,13.28
2019-02-04T06:07:00.072Z,13.16
2019-02-04T06:12:06.107Z,13.94
2019-02-04T06:17:12.117Z,14.76
2019-02-04T06:22:18.221Z,14.25
2019-02-04T06:27:24.220Z,21.44
2019-02-04T06:32:30.332Z,13.89
2019-02-04T06:37:36.361Z,13.96
2019-02-04T06:42:42.368Z,13.81
2019-02-04T06:47:48.401Z,22.54
2019-02-04T06:52:54.383Z,15.24
2019-02-04T06:58:00.405Z,14.84
2019-02-04T07:03:06.380Z,14.22
2019-02-04T07:08:12.416Z,15.09
2019-02-04T07:13:18.430Z,14.01
2019-02-04T07:18:24.436Z,14.26
2019-02-04T07:23:30.455Z,21.15
2019-02-04T07:28:36.500Z,13.57
2019-02-04T07:33:42.720Z,14.51
2019-02-04T07:38:48.745Z,13.77
2019-02-04T07:43:54.734Z,19.35
2019-02-04T07:49:00.708Z,13.00
2019-02-04T07:54:06.722Z,12.75
2019-02-04T07:59:12.750Z,14.66
2019-02-04T08:04:18.722Z,12.11
2019-02-04T08:09:24.720Z,12.51
2019-02-04T08:14:30.815Z,12.77
2019-02-04T08:19:46.914Z,11.83
2019-02-04T08:24:42.325Z,12.07
2019-02-04T08:29:48.460Z,12.22
2019-02-04T08:34:54.354Z,18.34
2019-02-04T08:40:00.369Z,12.16
2019-02-04T08:45:06.418Z,12.20
2019-02-04T08:50:12.408Z,11.59
2019-02-04T08:55:18.413Z,11.19
2019-02-04T09:00:24.416Z,11.16
2019-02-04T09:05:30.397Z,15.19
2019-02-04T09:10:36.425Z,15.24
2019-02-04T09:15:42.470Z,10.30
2019-02-04T09:20:48.486Z,9.74
2019-02-04T09:25:54.497Z,9.85
2019-02-04T09:31:00.675Z,9.43
2019-02-04T09:36:06.721Z,8.83
2019-02-04T09:41:12.766Z,12.74
2019-02-04T09:46:18.738Z,8.12
2019-02-04T09:51:24.809Z,6.85
2019-02-04T09:56:30.975Z,8.19
2019-02-04T10:01:37.003Z,8.20
2019-02-04T10:06:42.976Z,8.52
2019-02-04T10:11:48.993Z,6.75
2019-02-04T10:16:55.035Z,8.05
2019-02-04T10:22:01.033Z,7.51
2019-02-04T10:27:07.011Z,5.83
2019-02-04T10:32:12.984Z,4.35
2019-02-04T10:37:18.981Z,4.63
2019-02-04T10:42:25.040Z,4.55
2019-02-04T10:47:31.255Z,4.41
2019-02-04T10:52:37.195Z,4.50
2019-02-04T10:57:44.803Z,4.33
2019-02-04T11:02:50.818Z,4.68
2019-02-04T11:07:56.809Z,4.18
2019-02-04T11:13:02.888Z,5.50
2019-02-04T11:18:08.912Z,4.37
2019-02-04T11:23:14.936Z,4.11
2019-02-04T11:28:20.938Z,3.82
2019-02-04T11:33:26.949Z,4.06
2019-02-04T11:38:33.006Z,4.02
2019-02-04T11:43:38.961Z,5.98
2019-02-04T11:48:44.932Z,5.84
2019-02-04T11:53:51.030Z,3.91
2019-02-04T11:58:57.044Z,4.23
2019-02-04T12:04:03.141Z,3.82
2019-02-04T12:09:09.113Z,4.79
2019-02-04T12:14:15.128Z,5.34
2019-02-04T12:19:21.216Z,3.60
2019-02-04T12:24:27.329Z,3.80
2019-02-04T12:29:33.319Z,3.25
2019-02-04T12:34:39.349Z,5.02
2019-02-04T12:39:45.330Z,3.34
2019-02-04T12:44:51.346Z,3.61
2019-02-04T12:49:57.310Z,2.72
2019-02-04T12:55:03.319Z,4.53
2019-02-04T13:00:09.338Z,2.92
2019-02-04T13:05:15.399Z,2.85
2019-02-04T13:10:21.388Z,2.37
2019-02-04T13:15:27.412Z,2.17
2019-02-04T13:20:33.412Z,2.12
2019-02-04T13:25:39.461Z,1.95
2019-02-04T13:30:45.508Z,2.47
2019-02-04T13:35:51.480Z,3.30
2019-02-04T13:41:07.570Z,3.00
2019-02-04T13:46:05.801Z,1.57
2019-02-04T13:51:08.483Z,2.80
2019-02-04T13:56:14.573Z,2.83
2019-02-04T14:01:20.512Z,1.83
2019-02-04T14:06:26.528Z,2.52
2019-02-04T14:11:32.569Z,1.69
2019-02-04T14:16:38.596Z,2.02
2019-02-04T14:21:44.600Z,1.83
2019-02-04T14:26:50.624Z,2.25
2019-02-04T14:31:56.635Z,1.90
2019-02-04T14:37:02.629Z,1.96
2019-02-04T14:42:08.717Z,2.37
2019-02-04T14:47:14.729Z,1.59
2019-02-04T14:52:21.794Z,1.93
2019-02-04T14:57:26.330Z,1.77
2019-02-04T15:02:32.450Z,1.54
2019-02-04T15:07:38.508Z,1.59
2019-02-04T15:12:44.704Z,1.76
2019-02-04T15:17:50.710Z,1.73
2019-02-04T15:22:56.705Z,2.00
2019-02-04T15:28:02.814Z,1.68
2019-02-04T15:33:08.897Z,1.72
2019-02-04T15:38:14.903Z,1.70
2019-02-04T15:43:20.918Z,1.73
2019-02-04T15:48:27.124Z,2.40
2019-02-04T15:53:33.156Z,1.76
2019-02-04T15:58:39.155Z,2.16
2019-02-04T16:03:45.140Z,2.56
2019-02-04T16:08:51.143Z,2.43
2019-02-04T16:13:57.162Z,1.65
2019-02-04T16:19:03.170Z,1.58
2019-02-04T16:24:09.165Z,1.87
2019-02-04T16:29:15.212Z,1.90
2019-02-04T16:34:23.940Z,2.47
2019-02-04T16:39:26.859Z,1.92
2019-02-04T16:44:32.885Z,2.43
2019-02-04T16:49:39.373Z,1.96
2019-02-04T16:54:45.356Z,2.15
2019-02-04T16:59:51.349Z,2.32
2019-02-04T17:04:57.372Z,3.26
2019-02-04T17:10:03.380Z,1.95
2019-02-04T17:15:09.420Z,2.24
2019-02-04T17:20:15.426Z,1.83
2019-02-04T17:25:21.435Z,2.07
2019-02-04T17:30:27.459Z,2.85
2019-02-04T17:35:33.534Z,2.46
2019-02-04T17:40:39.584Z,2.58
2019-02-04T17:45:45.654Z,2.37
2019-02-04T17:50:51.678Z,2.57
2019-02-04T17:55:57.759Z,2.17
2019-02-04T18:01:03.849Z,2.42
2019-02-04T18:06:09.863Z,3.55
2019-02-04T18:11:16.048Z,2.74
2019-02-04T18:16:22.245Z,2.57
2019-02-04T18:21:28.351Z,2.79
2019-02-04T18:26:34.373Z,4.57
2019-02-04T18:31:40.385Z,2.82
2019-02-04T18:36:47.102Z,2.51
2019-02-04T18:41:51.976Z,3.02
2019-02-04T18:46:58.005Z,2.65
2019-02-04T18:52:04.066Z,2.94
2019-02-04T18:57:10.142Z,3.05
2019-02-04T19:02:16.155Z,3.30
2019-02-04T19:07:22.167Z,3.58
2019-02-04T19:12:28.285Z,4.48
2019-02-04T19:17:34.369Z,6.68
2019-02-04T19:22:40.519Z,5.52
2019-02-04T19:27:46.560Z,4.02
2019-02-04T19:32:52.697Z,4.26
2019-02-04T19:37:58.777Z,6.06
2019-02-04T19:43:04.903Z,5.85
2019-02-04T19:48:11.846Z,4.03
2019-02-04T19:53:17.913Z,6.07
2019-02-04T19:58:23.974Z,3.80
2019-02-04T20:03:29.995Z,3.96
2019-02-04T20:08:36.131Z,4.04
2019-02-04T20:13:42.170Z,4.12
2019-02-04T20:18:48.155Z,3.84
2019-02-04T20:23:54.239Z,3.71
2019-02-04T20:29:00.283Z,3.83
2019-02-04T20:34:06.336Z,3.55
2019-02-04T20:39:12.352Z,3.67
2019-02-04T20:44:19.312Z,3.67
2019-02-04T20:49:24.009Z,5.40
2019-02-04T20:54:30.667Z,3.96
2019-02-04T20:59:36.757Z,3.88
2019-02-04T21:04:42.872Z,4.01
2019-02-04T21:09:48.906Z,5.53
2019-02-04T21:14:54.917Z,3.71
2019-02-04T21:20:01.036Z,3.67
2019-02-04T21:25:07.038Z,4.17
2019-02-04T21:30:13.073Z,3.73
2019-02-04T21:35:19.077Z,6.25
2019-02-04T21:40:25.104Z,4.30
2019-02-04T21:45:31.379Z,5.85
2019-02-04T21:50:37.483Z,3.70
2019-02-04T21:55:43.535Z,3.83
2019-02-04T22:00:49.569Z,5.12
2019-02-04T22:05:55.603Z,3.64
2019-02-04T22:11:01.625Z,5.24
2019-02-04T22:16:07.646Z,3.48
2019-02-04T22:21:13.704Z,4.96
2019-02-04T22:26:19.705Z,3.26
2019-02-04T22:31:25.716Z,5.10
2019-02-04T22:36:31.828Z,3.31
2019-02-04T22:41:37.886Z,3.32
2019-02-04T22:46:43.930Z,3.16
2019-02-04T22:51:49.955Z,3.15
2019-02-04T22:56:56.048Z,3.34
2019-02-04T23:02:02.050Z,4.87
2019-02-04T23:07:08.089Z,3.65
2019-02-04T23:12:14.115Z,5.28
2019-02-04T23:17:20.140Z,3.31
2019-02-04T23:22:26.180Z,4.93
2019-02-04T23:27:32.158Z,3.17
2019-02-04T23:32:38.147Z,3.08
2019-02-04T23:37:44.140Z,3.79
2019-02-04T23:42:50.100Z,4.57
2019-02-04T23:47:56.126Z,3.23
2019-02-04T23:53:02.111Z,3.26
2019-02-04T23:58:08.096Z,3.30
